Terminal Aerodrome Forecast
Issued by NWS

Home | Current Version | Previous Version | Text Only | Print | Product List | Glossary Off
Versions: 1 2 3 4 5 6 7 8 9 10 11 12 13 14 15 16 17 18 19 20 21 22 23 24 25 26 27 28 29

000
FTUS43 KABR 272000 AAB
TAFATY
TAF AMD
KATY 272029Z 2720/2818 18009KT P6SM OVC050
     FM272130 17017KT 3SM -SN OVC030
      TEMPO 2722/2724 1SM -SN OVC025
     FM280100 15008KT P6SM OVC015
     FM281600 17014KT P6SM SCT020=

USA.gov is the U.S. government's official web portal to all federal, state and local government web resources and services.